createdAt,value
2018-09-30T00:01:39.926Z,12.61
2018-09-30T00:04:08.924Z,12.49
2018-09-30T00:06:38.176Z,12.31
2018-09-30T00:09:08.164Z,12.18
2018-09-30T00:11:37.150Z,12.15
2018-09-30T00:14:06.132Z,12.36
2018-09-30T00:16:35.020Z,12.50
2018-09-30T00:19:03.956Z,12.40
2018-09-30T00:21:32.886Z,12.31
2018-09-30T00:24:07.188Z,12.23
2018-09-30T00:26:41.702Z,12.30
2018-09-30T00:29:11.640Z,12.41
2018-09-30T00:31:40.542Z,12.57
2018-09-30T00:34:14.792Z,12.58
2018-09-30T00:36:43.697Z,12.60
2018-09-30T00:39:12.651Z,12.43
2018-09-30T00:41:41.552Z,12.33
2018-09-30T00:44:10.653Z,12.47
2018-09-30T00:46:39.610Z,12.43
2018-09-30T00:49:09.673Z,12.51
2018-09-30T00:51:38.559Z,12.63
2018-09-30T00:54:07.458Z,12.61
2018-09-30T00:56:36.413Z,12.62
2018-09-30T00:59:05.361Z,12.60
2018-09-30T01:01:34.294Z,12.58
2018-09-30T01:04:03.366Z,12.62
2018-09-30T01:06:32.465Z,12.57
2018-09-30T01:09:03.351Z,12.54
2018-09-30T01:11:32.298Z,12.48
2018-09-30T01:14:01.206Z,12.49
2018-09-30T01:16:30.110Z,12.54
2018-09-30T01:18:59.095Z,12.51
2018-09-30T01:21:28.072Z,12.42
2018-09-30T01:23:57.041Z,12.44
2018-09-30T01:26:27.007Z,12.45
2018-09-30T01:28:55.964Z,12.34
2018-09-30T01:31:24.912Z,12.29
2018-09-30T01:33:53.869Z,12.32
2018-09-30T01:36:22.776Z,12.14
2018-09-30T01:38:51.752Z,12.23
2018-09-30T01:41:20.640Z,12.31
2018-09-30T01:43:49.632Z,12.27
2018-09-30T01:46:18.600Z,12.36
2018-09-30T01:48:47.502Z,12.41
2018-09-30T01:51:16.422Z,12.38
2018-09-30T01:53:45.363Z,12.50
2018-09-30T01:56:14.291Z,12.29
2018-09-30T01:58:43.195Z,12.41
2018-09-30T02:01:12.171Z,12.39
2018-09-30T02:03:41.080Z,12.40
2018-09-30T02:06:12.769Z,12.35
2018-09-30T02:08:41.681Z,12.35
2018-09-30T02:11:10.604Z,12.33
2018-09-30T02:13:39.489Z,12.25
2018-09-30T02:16:08.428Z,12.30
2018-09-30T02:18:37.398Z,12.35
2018-09-30T02:21:06.438Z,12.33
2018-09-30T02:23:35.533Z,12.26
2018-09-30T02:26:04.446Z,12.25
2018-09-30T02:28:33.350Z,12.23
2018-09-30T02:31:02.235Z,12.14
2018-09-30T02:33:31.126Z,12.10
2018-09-30T02:36:00.030Z,12.15
2018-09-30T02:38:28.940Z,12.09
2018-09-30T02:40:57.942Z,12.08
2018-09-30T02:43:26.872Z,12.20
2018-09-30T02:45:56.864Z,12.15
2018-09-30T02:48:25.842Z,12.03
2018-09-30T02:50:54.779Z,11.87
2018-09-30T02:53:23.762Z,11.94
2018-09-30T02:55:52.656Z,12.01
2018-09-30T02:58:21.583Z,12.00
2018-09-30T03:00:50.596Z,12.01
2018-09-30T03:03:19.544Z,11.98
2018-09-30T03:05:48.477Z,11.76
2018-09-30T03:08:22.788Z,11.84
2018-09-30T03:10:51.717Z,11.88
2018-09-30T03:13:20.687Z,11.98
2018-09-30T03:15:49.688Z,12.07
2018-09-30T03:18:18.670Z,12.01
2018-09-30T03:20:47.561Z,11.89
2018-09-30T03:23:16.587Z,11.92
2018-09-30T03:25:45.548Z,11.89
2018-09-30T03:28:14.422Z,11.92
2018-09-30T03:30:43.411Z,11.91
2018-09-30T03:33:12.341Z,11.85
2018-09-30T03:35:41.253Z,11.90
2018-09-30T03:38:10.187Z,11.89
2018-09-30T03:40:39.085Z,11.83
2018-09-30T03:43:13.905Z,11.80
2018-09-30T03:45:42.841Z,11.74
2018-09-30T03:48:11.831Z,11.85
2018-09-30T03:50:40.769Z,11.79
2018-09-30T03:53:09.680Z,11.76
2018-09-30T03:55:38.609Z,11.81
2018-09-30T03:58:07.567Z,11.66
2018-09-30T04:00:37.623Z,11.64
2018-09-30T04:03:06.541Z,11.63
2018-09-30T04:05:35.427Z,11.55
2018-09-30T04:08:04.353Z,11.64
2018-09-30T04:10:33.257Z,11.62
2018-09-30T04:13:04.302Z,11.66
2018-09-30T04:15:33.185Z,11.55
2018-09-30T04:18:02.312Z,11.51
2018-09-30T04:20:31.212Z,11.50
2018-09-30T04:23:01.156Z,11.51
2018-09-30T04:25:30.053Z,11.42
2018-09-30T04:27:58.940Z,11.49
2018-09-30T04:30:27.803Z,11.55
2018-09-30T04:32:56.697Z,11.44
2018-09-30T04:35:25.644Z,11.38
2018-09-30T04:37:54.694Z,11.47
2018-09-30T04:40:23.699Z,11.27
2018-09-30T04:42:52.684Z,11.40
2018-09-30T04:45:21.605Z,11.26
2018-09-30T04:47:50.473Z,11.31
2018-09-30T04:50:19.397Z,11.31
2018-09-30T04:52:48.315Z,11.38
2018-09-30T04:55:17.292Z,11.36
2018-09-30T04:57:46.336Z,11.35
2018-09-30T05:00:15.316Z,11.37
2018-09-30T05:02:44.212Z,11.34
2018-09-30T05:05:13.163Z,11.43
2018-09-30T05:07:42.088Z,11.37
2018-09-30T05:10:11.021Z,11.42
2018-09-30T05:12:42.909Z,11.40
2018-09-30T05:15:11.864Z,11.44
2018-09-30T05:17:40.856Z,11.38
2018-09-30T05:20:10.456Z,11.32
2018-09-30T05:22:42.580Z,11.36
2018-09-30T05:25:11.569Z,11.32
2018-09-30T05:27:40.500Z,11.24
2018-09-30T05:30:09.407Z,11.25
2018-09-30T05:32:38.321Z,11.26
2018-09-30T05:35:07.373Z,11.26
2018-09-30T05:37:36.372Z,11.38
2018-09-30T05:40:05.300Z,11.43
2018-09-30T05:42:34.265Z,11.46
2018-09-30T05:45:03.221Z,11.44
2018-09-30T05:47:32.204Z,11.29
2018-09-30T05:50:01.162Z,11.42
2018-09-30T05:52:30.079Z,11.38
2018-09-30T05:54:59.033Z,11.47
2018-09-30T05:57:28.100Z,11.48
2018-09-30T05:59:57.004Z,11.43
2018-09-30T06:02:25.900Z,11.46
2018-09-30T06:04:54.821Z,11.57
2018-09-30T06:07:23.741Z,11.56
2018-09-30T06:09:52.672Z,11.56
2018-09-30T06:12:21.624Z,11.45
2018-09-30T06:14:50.565Z,11.54
2018-09-30T06:17:19.486Z,11.52
2018-09-30T06:19:48.479Z,11.54
2018-09-30T06:22:17.398Z,11.70
2018-09-30T06:24:46.362Z,11.91
2018-09-30T06:27:15.260Z,12.24
2018-09-30T06:29:45.437Z,12.38
2018-09-30T06:32:14.596Z,12.84
2018-09-30T06:34:43.490Z,12.91
2018-09-30T06:37:12.511Z,13.00
2018-09-30T06:39:41.345Z,13.13
2018-09-30T06:42:10.244Z,13.46
2018-09-30T06:44:44.574Z,13.68
2018-09-30T06:47:14.612Z,13.18
2018-09-30T06:49:44.668Z,13.41
2018-09-30T06:52:14.681Z,13.34
2018-09-30T06:54:44.699Z,13.58
2018-09-30T06:57:15.704Z,13.59
2018-09-30T06:59:44.681Z,13.72
2018-09-30T07:02:13.724Z,13.91
2018-09-30T07:04:42.678Z,13.69
2018-09-30T07:07:11.682Z,13.74
2018-09-30T07:09:40.676Z,14.03
2018-09-30T07:12:09.672Z,14.14
2018-09-30T07:14:38.651Z,14.33
2018-09-30T07:17:07.684Z,14.15
2018-09-30T07:19:36.637Z,14.34
2018-09-30T07:23:08.725Z,14.31
2018-09-30T07:25:37.673Z,14.29
2018-09-30T07:28:08.836Z,14.57
2018-09-30T07:30:37.847Z,14.52
2018-09-30T07:33:06.827Z,14.67
2018-09-30T07:35:35.829Z,15.01
2018-09-30T07:38:04.805Z,15.12
2018-09-30T07:40:33.852Z,15.34
2018-09-30T07:43:02.806Z,15.49
2018-09-30T07:45:32.102Z,15.54
2018-09-30T07:48:01.072Z,15.56
2018-09-30T07:50:30.108Z,15.89
2018-09-30T07:52:59.077Z,15.97
2018-09-30T07:55:31.814Z,16.11
2018-09-30T07:58:00.712Z,16.24
2018-09-30T08:00:29.653Z,16.13
2018-09-30T08:02:58.583Z,16.15
2018-09-30T08:05:27.489Z,16.08
2018-09-30T08:07:56.413Z,16.20
2018-09-30T08:10:25.362Z,16.02
2018-09-30T08:12:54.250Z,16.08
2018-09-30T08:15:23.197Z,16.24
2018-09-30T08:17:52.123Z,16.09
2018-09-30T08:20:21.077Z,16.18
2018-09-30T08:22:50.000Z,15.92
2018-09-30T08:25:18.972Z,15.91
2018-09-30T08:27:51.304Z,16.06
2018-09-30T08:30:20.322Z,16.16
2018-09-30T08:32:49.223Z,16.06
2018-09-30T08:35:18.243Z,15.74
2018-09-30T08:37:52.530Z,15.74
2018-09-30T08:40:27.888Z,16.11
2018-09-30T08:42:57.049Z,16.01
2018-09-30T08:45:25.986Z,15.84
2018-09-30T08:47:54.978Z,16.03
2018-09-30T08:50:23.892Z,15.70
2018-09-30T08:52:52.835Z,15.84
2018-09-30T08:55:22.899Z,15.94
2018-09-30T08:57:55.333Z,15.86
2018-09-30T09:00:24.357Z,15.53
2018-09-30T09:02:53.330Z,15.53
2018-09-30T09:05:22.231Z,15.66
2018-09-30T09:07:51.160Z,15.79
2018-09-30T09:10:20.125Z,15.81
2018-09-30T09:12:49.104Z,15.66
2018-09-30T09:15:18.038Z,15.74
2018-09-30T09:17:46.950Z,15.83
2018-09-30T09:20:15.997Z,15.54
2018-09-30T09:22:44.950Z,15.51
2018-09-30T09:25:13.803Z,15.56
2018-09-30T09:27:42.712Z,15.39
2018-09-30T09:30:11.666Z,15.55
2018-09-30T09:32:40.641Z,15.64
2018-09-30T09:35:10.385Z,15.71
2018-09-30T09:37:39.507Z,15.76
2018-09-30T09:40:10.128Z,15.78
2018-09-30T09:42:39.186Z,15.76
2018-09-30T09:45:08.303Z,15.79
2018-09-30T09:47:37.217Z,15.78
2018-09-30T09:50:07.017Z,15.62
2018-09-30T09:52:36.105Z,15.79
2018-09-30T09:55:05.025Z,15.72
2018-09-30T09:57:33.963Z,15.82
2018-09-30T10:00:02.964Z,15.89
2018-09-30T10:02:32.024Z,15.94
2018-09-30T10:05:01.036Z,15.95
2018-09-30T10:07:29.981Z,15.89
2018-09-30T10:09:58.888Z,15.82
2018-09-30T10:12:28.026Z,15.86
2018-09-30T10:14:56.943Z,15.86
2018-09-30T10:17:25.927Z,15.80
2018-09-30T10:19:54.843Z,15.82
2018-09-30T10:22:23.772Z,15.77
2018-09-30T10:24:52.782Z,15.80
2018-09-30T10:27:21.737Z,15.75
2018-09-30T10:29:50.636Z,15.73
2018-09-30T10:32:22.393Z,15.71
2018-09-30T10:34:55.588Z,15.76
2018-09-30T10:37:24.660Z,15.72
2018-09-30T10:39:53.598Z,15.75
2018-09-30T10:42:24.134Z,15.74
2018-09-30T10:44:53.125Z,15.73
2018-09-30T10:47:22.156Z,15.71
2018-09-30T10:49:51.070Z,15.71
2018-09-30T10:52:20.016Z,15.68
2018-09-30T10:54:49.020Z,15.71
2018-09-30T10:57:17.982Z,15.71
2018-09-30T10:59:46.885Z,15.78
2018-09-30T11:02:15.823Z,15.84
2018-09-30T11:04:44.743Z,15.79
2018-09-30T11:07:13.709Z,15.81
2018-09-30T11:09:42.752Z,15.81
2018-09-30T11:12:11.583Z,15.83
2018-09-30T11:14:40.533Z,15.84
2018-09-30T11:17:09.365Z,15.83
2018-09-30T11:19:38.248Z,15.85
2018-09-30T11:22:07.141Z,15.84
2018-09-30T11:24:36.432Z,15.84
2018-09-30T11:27:05.356Z,15.85
2018-09-30T11:29:34.295Z,15.85
2018-09-30T11:32:03.216Z,15.85
2018-09-30T11:34:32.204Z,15.87
2018-09-30T11:37:01.123Z,15.94
2018-09-30T11:39:30.046Z,15.99
2018-09-30T11:41:59.073Z,16.08
2018-09-30T11:44:28.023Z,16.12
2018-09-30T11:46:56.955Z,16.08
2018-09-30T11:49:25.860Z,16.07
2018-09-30T11:51:54.807Z,16.13
2018-09-30T11:54:23.775Z,16.15
2018-09-30T11:56:53.052Z,16.13
2018-09-30T11:59:21.955Z,16.22
2018-09-30T12:01:50.869Z,16.23
2018-09-30T12:04:19.832Z,16.21
2018-09-30T12:06:48.734Z,16.15
2018-09-30T12:09:17.688Z,16.21
2018-09-30T12:11:46.560Z,16.23
2018-09-30T12:14:15.484Z,16.20
2018-09-30T12:16:44.463Z,16.19
2018-09-30T12:19:13.418Z,16.20
2018-09-30T12:21:42.316Z,16.25
2018-09-30T12:24:11.276Z,16.25
2018-09-30T12:26:40.219Z,16.22
2018-09-30T12:29:09.259Z,16.29
2018-09-30T12:31:38.384Z,16.22
2018-09-30T12:34:08.413Z,16.18
2018-09-30T12:36:37.400Z,16.11
2018-09-30T12:39:07.754Z,16.15
2018-09-30T12:41:36.854Z,16.23
2018-09-30T12:44:05.814Z,16.28
2018-09-30T12:46:37.743Z,16.27
2018-09-30T12:49:06.651Z,16.15
2018-09-30T12:51:35.571Z,16.00
2018-09-30T12:54:04.575Z,16.03
2018-09-30T12:56:33.516Z,16.11
2018-09-30T12:59:02.441Z,16.20
2018-09-30T13:01:31.337Z,16.16
2018-09-30T13:04:00.250Z,16.05
2018-09-30T13:06:29.151Z,16.06
2018-09-30T13:08:58.341Z,16.14
2018-09-30T13:11:27.343Z,16.24
2018-09-30T13:13:56.329Z,16.22
2018-09-30T13:16:25.261Z,16.05
2018-09-30T13:18:54.212Z,16.12
2018-09-30T13:21:23.132Z,16.23
2018-09-30T13:23:52.324Z,16.26
2018-09-30T13:26:21.269Z,16.30
2018-09-30T13:28:50.264Z,16.27
2018-09-30T13:31:19.231Z,16.06
2018-09-30T13:33:48.223Z,16.08
2018-09-30T13:36:17.145Z,16.04
2018-09-30T13:38:48.088Z,15.97
2018-09-30T13:41:17.081Z,16.04
2018-09-30T13:43:45.942Z,16.01
2018-09-30T13:46:16.979Z,15.97
2018-09-30T13:48:45.888Z,15.91
2018-09-30T13:51:14.924Z,15.92
2018-09-30T13:53:43.766Z,15.89
2018-09-30T13:56:12.743Z,15.89
2018-09-30T13:58:41.637Z,15.87
2018-09-30T14:01:11.663Z,15.80
2018-09-30T14:03:40.628Z,15.78
2018-09-30T14:06:10.191Z,15.82
2018-09-30T14:08:39.069Z,15.84
2018-09-30T14:11:08.062Z,15.82
2018-09-30T14:13:37.054Z,15.82
2018-09-30T14:16:05.999Z,15.84
2018-09-30T14:18:34.954Z,15.87
2018-09-30T14:21:03.893Z,15.75
2018-09-30T14:23:32.810Z,15.69
2018-09-30T14:26:01.758Z,15.71
2018-09-30T14:28:30.747Z,15.78
2018-09-30T14:30:59.750Z,15.73
2018-09-30T14:33:28.702Z,15.81
2018-09-30T14:35:57.813Z,15.78
2018-09-30T14:38:26.747Z,15.71
2018-09-30T14:40:55.747Z,15.70
2018-09-30T14:43:24.655Z,15.60
2018-09-30T14:45:53.568Z,15.57
2018-09-30T14:48:22.717Z,15.54
2018-09-30T14:50:51.567Z,15.54
2018-09-30T14:53:20.548Z,15.49
2018-09-30T14:55:49.489Z,15.80
2018-09-30T14:58:19.563Z,15.65
2018-09-30T15:00:48.571Z,15.69
2018-09-30T15:03:17.464Z,15.74
2018-09-30T15:05:46.428Z,15.64
2018-09-30T15:08:15.642Z,15.59
2018-09-30T15:10:44.622Z,15.68
2018-09-30T15:13:13.512Z,15.69
2018-09-30T15:15:42.476Z,15.65
2018-09-30T15:18:11.395Z,15.72
2018-09-30T15:20:40.323Z,15.80
2018-09-30T15:23:09.410Z,15.81
2018-09-30T15:25:38.563Z,15.80
2018-09-30T15:28:07.685Z,15.72
2018-09-30T15:30:36.774Z,15.76
2018-09-30T15:33:05.924Z,15.68
2018-09-30T15:35:34.901Z,15.74
2018-09-30T15:38:03.956Z,15.70
2018-09-30T15:40:32.925Z,15.59
2018-09-30T15:43:02.726Z,15.63
2018-09-30T15:45:31.614Z,15.59
2018-09-30T15:48:01.345Z,15.52
2018-09-30T15:50:30.464Z,15.39
2018-09-30T15:52:59.377Z,15.36
2018-09-30T15:55:28.372Z,15.29
2018-09-30T15:57:57.262Z,15.21
2018-09-30T16:00:26.251Z,15.18
2018-09-30T16:02:55.177Z,15.16
2018-09-30T16:05:24.079Z,15.16
2018-09-30T16:07:53.003Z,15.07
2018-09-30T16:10:21.955Z,15.05
2018-09-30T16:12:51.566Z,15.05
2018-09-30T16:15:20.504Z,15.00
2018-09-30T16:17:49.398Z,14.97
2018-09-30T16:20:18.295Z,15.00
2018-09-30T16:22:47.353Z,14.97
2018-09-30T16:25:16.361Z,15.00
2018-09-30T16:27:46.101Z,14.97
2018-09-30T16:30:15.143Z,14.98
2018-09-30T16:32:44.089Z,14.96
2018-09-30T16:35:13.133Z,14.92
2018-09-30T16:37:42.021Z,14.84
2018-09-30T16:40:10.989Z,14.92
2018-09-30T16:42:40.010Z,14.87
2018-09-30T16:45:09.001Z,14.90
2018-09-30T16:47:38.064Z,14.95
2018-09-30T16:50:07.069Z,14.97
2018-09-30T16:52:36.256Z,14.93
2018-09-30T16:55:05.161Z,14.97
2018-09-30T16:57:34.112Z,14.98
2018-09-30T17:00:03.314Z,14.90
2018-09-30T17:02:32.612Z,14.87
2018-09-30T17:05:01.467Z,14.87
2018-09-30T17:07:30.359Z,14.91
2018-09-30T17:10:00.270Z,14.93
2018-09-30T17:12:29.276Z,14.91
2018-09-30T17:14:58.356Z,14.91
2018-09-30T17:17:27.480Z,14.90
2018-09-30T17:19:56.435Z,14.94
2018-09-30T17:22:25.466Z,14.94
2018-09-30T17:24:54.431Z,14.90
2018-09-30T17:27:23.399Z,14.87
2018-09-30T17:29:52.496Z,14.91
2018-09-30T17:32:21.789Z,14.93
2018-09-30T17:34:50.885Z,14.91
2018-09-30T17:39:50.153Z,14.99
2018-09-30T17:42:19.251Z,15.01
2018-09-30T17:44:49.263Z,15.02
2018-09-30T17:47:19.321Z,14.95
2018-09-30T17:49:48.423Z,14.96
2018-09-30T17:52:17.519Z,14.99
2018-09-30T17:54:47.684Z,14.89
2018-09-30T17:57:16.725Z,14.83
2018-09-30T17:59:45.724Z,14.77
2018-09-30T18:02:15.844Z,14.70
2018-09-30T18:04:46.485Z,14.57
2018-09-30T18:07:15.459Z,14.59
2018-09-30T18:09:46.577Z,14.59
2018-09-30T18:12:15.549Z,14.54
2018-09-30T18:14:44.486Z,14.54
2018-09-30T18:17:15.420Z,14.59
2018-09-30T18:19:44.763Z,14.60
2018-09-30T18:22:15.289Z,14.58
2018-09-30T18:24:44.549Z,14.56
2018-09-30T18:27:13.571Z,14.54
2018-09-30T18:29:42.763Z,14.56
2018-09-30T18:32:12.147Z,14.59
2018-09-30T18:34:41.470Z,14.61
2018-09-30T18:37:12.641Z,14.62
2018-09-30T18:39:44.487Z,14.60
2018-09-30T18:42:14.276Z,14.64
2018-09-30T18:44:43.537Z,14.58
2018-09-30T18:47:12.714Z,14.65
2018-09-30T18:49:43.066Z,14.55
2018-09-30T18:52:12.374Z,14.53
2018-09-30T18:54:41.719Z,14.45
2018-09-30T18:57:10.946Z,14.42
2018-09-30T18:59:40.336Z,14.41
2018-09-30T19:02:09.816Z,14.41
2018-09-30T19:04:39.116Z,14.45
2018-09-30T19:07:08.724Z,14.38
2018-09-30T19:09:37.965Z,14.39
2018-09-30T19:12:09.219Z,14.46
2018-09-30T19:14:38.524Z,14.38
2018-09-30T19:17:07.927Z,14.35
2018-09-30T19:19:37.704Z,14.31
2018-09-30T19:22:10.981Z,14.39
2018-09-30T19:24:40.256Z,14.49
2018-09-30T19:27:11.272Z,14.26
2018-09-30T19:29:40.141Z,14.34
2018-09-30T19:32:09.100Z,14.32
2018-09-30T19:34:38.337Z,14.31
2018-09-30T19:37:07.223Z,14.31
2018-09-30T19:39:36.284Z,14.32
2018-09-30T19:42:07.231Z,14.30
2018-09-30T19:44:36.203Z,14.32
2018-09-30T19:47:06.390Z,14.26
2018-09-30T19:49:35.353Z,14.36
2018-09-30T19:52:05.328Z,14.21
2018-09-30T19:54:34.269Z,14.24
2018-09-30T19:57:04.296Z,14.25
2018-09-30T19:59:33.223Z,14.23
2018-09-30T20:02:02.203Z,14.23
2018-09-30T20:04:31.424Z,14.29
2018-09-30T20:07:00.512Z,14.28
2018-09-30T20:09:30.418Z,14.27
2018-09-30T20:11:59.323Z,14.31
2018-09-30T20:14:28.292Z,14.25
2018-09-30T20:16:57.172Z,14.07
2018-09-30T20:19:26.164Z,14.29
2018-09-30T20:21:56.062Z,14.30
2018-09-30T20:24:28.419Z,14.30
2018-09-30T20:26:57.514Z,14.22
2018-09-30T20:29:26.897Z,14.23
2018-09-30T20:31:56.883Z,14.29
2018-09-30T20:34:25.792Z,14.25
2018-09-30T20:36:54.791Z,14.27
2018-09-30T20:39:23.813Z,14.29
2018-09-30T20:41:52.776Z,14.25
2018-09-30T20:44:21.686Z,14.30
2018-09-30T20:46:50.550Z,14.27
2018-09-30T20:49:19.411Z,14.25
2018-09-30T20:51:50.341Z,14.14
2018-09-30T20:54:19.222Z,14.29
2018-09-30T20:56:48.185Z,14.28
2018-09-30T20:59:17.256Z,14.23
2018-09-30T21:01:46.230Z,14.28
2018-09-30T21:04:15.132Z,14.37
2018-09-30T21:06:44.872Z,14.28
2018-09-30T21:09:15.688Z,14.30
2018-09-30T21:11:44.576Z,14.19
2018-09-30T21:14:13.609Z,14.18
2018-09-30T21:16:42.495Z,14.18
2018-09-30T21:19:11.373Z,14.16
2018-09-30T21:21:40.372Z,14.16
2018-09-30T21:24:09.225Z,14.11
2018-09-30T21:26:38.177Z,14.12
2018-09-30T21:29:07.032Z,14.10
2018-09-30T21:31:36.533Z,14.12
2018-09-30T21:34:05.502Z,14.14
2018-09-30T21:36:34.305Z,14.17
2018-09-30T21:39:03.288Z,14.15
2018-09-30T21:41:32.231Z,14.11
2018-09-30T21:44:01.239Z,14.13
2018-09-30T21:46:30.163Z,14.21
2018-09-30T21:48:59.123Z,14.10
2018-09-30T21:51:27.950Z,14.03
2018-09-30T21:53:56.831Z,14.11
2018-09-30T21:56:25.758Z,14.03
2018-09-30T21:58:54.676Z,14.02
2018-09-30T22:01:23.697Z,14.00
2018-09-30T22:03:52.544Z,14.01
2018-09-30T22:06:21.456Z,14.05
2018-09-30T22:08:56.193Z,14.12
2018-09-30T22:11:30.779Z,14.07
2018-09-30T22:13:59.873Z,14.05
2018-09-30T22:16:28.869Z,14.01
2018-09-30T22:18:57.940Z,13.92
2018-09-30T22:21:26.870Z,13.91
2018-09-30T22:23:55.887Z,14.02
2018-09-30T22:26:24.889Z,14.03
2018-09-30T22:28:53.803Z,14.01
2018-09-30T22:31:22.699Z,14.00
2018-09-30T22:33:51.688Z,13.99
2018-09-30T22:36:20.653Z,13.97
2018-09-30T22:38:49.589Z,14.00
2018-09-30T22:41:18.499Z,14.01
2018-09-30T22:43:47.396Z,14.04
2018-09-30T22:46:16.244Z,14.03
2018-09-30T22:48:45.163Z,14.02
2018-09-30T22:51:14.056Z,14.04
2018-09-30T22:53:42.924Z,14.03
2018-09-30T22:56:11.864Z,13.95
2018-09-30T22:58:40.849Z,13.80
2018-09-30T23:01:09.710Z,13.75
2018-09-30T23:03:38.651Z,13.58
2018-09-30T23:06:07.697Z,13.53
2018-09-30T23:08:36.736Z,13.25
2018-09-30T23:11:05.712Z,12.94
2018-09-30T23:13:34.607Z,12.86
2018-09-30T23:16:03.609Z,12.61
2018-09-30T23:18:32.511Z,12.62
2018-09-30T23:21:01.459Z,12.71
2018-09-30T23:23:30.413Z,12.59
2018-09-30T23:25:59.297Z,12.69
2018-09-30T23:28:28.237Z,12.72
2018-09-30T23:30:57.111Z,12.77
2018-09-30T23:33:26.035Z,12.63
2018-09-30T23:35:55.076Z,12.66
2018-09-30T23:38:23.957Z,12.65
2018-09-30T23:40:52.876Z,12.72
2018-09-30T23:43:22.040Z,12.74
2018-09-30T23:45:50.943Z,12.56
2018-09-30T23:48:19.892Z,12.56
2018-09-30T23:50:48.876Z,12.48
2018-09-30T23:53:17.775Z,12.55
2018-09-30T23:55:46.679Z,12.53
2018-09-30T23:58:15.642Z,12.51
